Arthur City, TX

10:44 PM CDT on July 31, 2014 (GMT -0500)
Stamper Municipal (KHHW) Elev 571 ft | 34.03 °N, 95.54 °W | Change Station

Current weather conditions updated 9 minutes ago

Overcast
Overcast
69 °F
Feels Like 69 °F
N
7
Wind Variable Wind from ENE

Tomorrow is forecast to be Much Warmer than today. Showers ending by midday.

Today
High -- | Low -- °F
--% Chance of Precip.
Yesterday
High -- | Low -- °F
Precip. -- in
6:32 AM 8:23 PM
Waxing Crescent, 23% visible
Pressure 30.03 in
Visibility 10.0 miles
Clouds Overcast 800 ft
Dew Point 66 °F
Humidity 91%
Rainfall 0.00 in
Snow Depth Not available.
UV 0 out of 12
Pollen 2.30 out of 12
Air Quality Not available.
Flu Activity Not available.
METAR KHHW 010335Z AUTO 07006KT 10SM OVC008 21/19 A3003 RMK AO2 T02050190

More Conditions Fewer Conditions

Pressure 30.03 in
Visibility 10.0 miles
Clouds Overcast 800 ft
Dew Point 66 °F
Humidity 91%
Rainfall 0.00 in
Snow Depth Not available.
UV 0 out of 12
Pollen 2.30 out of 12
Air Quality Not available.
Flu Activity Not available.
METAR KHHW 010335Z AUTO 07006KT 10SM OVC008 21/19 A3003 RMK AO2 T02050190

More Conditions Fewer Conditions

10-Day Weather Forecast

Almanac

Astronomy

Jul. 31, 2014 Rise Set
Actual Time 6:32 AM CDT 8:23 PM CDT
Civil Twilight 6:05 AM CDT 8:50 PM CDT
Nautical Twilight 5:32 AM CDT 9:23 PM CDT
Astronomical Twilight 4:57 AM CDT 9:58 PM CDT
Moon 10:46 AM CDT (7/31) 10:52 PM CDT (7/31)
Length of Visible Light 14h 44m
Length of Day
13h 50m
Tomorrow will be 1m 34s shorter.
Waxing Crescent, 23% of the Moon is Illuminated
Today
Waxing Crescent
Aug 3
First Quarter
Aug 10
Full
Aug 17
Last Quarter
Aug 25
New

Today's Extremes

State Highs State Lows

Community

WunderPhotos

Upload Photos

1,739,504 photos uploaded!

Nearby

Snow Depth

Station Depth Elevation
No new snow has been reported.

Earthquake Activity

City Distance Mag. Time & Date
No recent earthquake activity has been reported nearby.
Minimum magnitude displayed is 2.5.

Coastal Water Temperatures

Place Temperature
No Stations Reporting

Nearby Weather Stations

Station Location Temp. Dew Point Humidity Wind Precip. Elev Updated Type
West Red River County, Detroit, TX 67.6 °F 67 °F 97% NE  at  4.0 mph 0.00 in / hr 461 ft 9:43 PM MDT Normal

Show More Stations Show Fewer Stations